Pays
Station

 

Conditions  météo  pour  Reykjavik  -  Islande    Islande

  
14 °C
    
 
 

METAR pour Reykjavik :

BIRK 231800Z 16012KT 9999 VCSH FEW032 SCT040 BKN048 14/06 Q1010

 

Voici le bulletin pour Reykjavik - Islande.
 
Le bulletin a été fait il y a 12 minutes, à 18:00 UTC .
Le vent soufflait à la vitesse de 6.2 mètres par seconde de Sud/Sud-est (160°).
 
La température était de 14 °C, avec un point de rosée à 6 °C.
La pression atmosphérique était de 1010 hPa.
L'humidité relative était de 58.5%.
 
Il y avait 1 à 2/8ème de nébulosité à une hauteur de 975 mètres, 3 à 4/8ème de nébulosité à une hauteur de 1219 mètres et 5 à 7/8ème de nébulosité à une hauteur de 1463 mètres.
 
La visibilité globale était de supérieure à 10 kilomètres.
 
Actuellement averses de à proximité.

 
 
 

Pays :   A   B   C   D   E   F   G   H   I   J   K   L   M   N   O   P   Q   R   S   T   U   V   W   Y   Z

 

Partenaires :  Info Météo avec Met'info
Météo Marine avec MeteoMarine.net
Infos Site  |  Infos Légales  |  Crédits  |  Confidentialité
Contactez-nous  |  Ajouter aux favoris
© 2013-2019 METAR - Tous droits réservés